Time;durP1;ratioP1;P1;durP2;ratioP2;P2;SDS_P1;SDS_P2;PMS_P1;PMS_P2;Temp;Humidity;BMP_temperature;BMP_pressure;BME280_temperature;BME280_humidity;BME280_pressure;Samples;Min_cycle;Max_cycle;Signal;HPM_P1;HPM_P2
2023/01/30 00:02:22;;;;;;;5.72;2.45;;;;;;;;;;5051496;28;20518;-63
2023/01/30 00:04:52;;;;;;;4.90;2.53;;;;;;;;;;5011680;28;20073;-63
2023/01/30 00:07:22;;;;;;;4.45;2.22;;;;;;;;;;5028283;28;20054;-63
2023/01/30 00:09:51;;;;;;;5.68;2.13;;;;;;;;;;5011723;28;20053;-63
2023/01/30 00:12:21;;;;;;;3.65;2.25;;;;;;;;;;5011407;28;20050;-63
2023/01/30 00:14:51;;;;;;;6.65;2.22;;;;;;;;;;5010958;28;20069;-63
2023/01/30 00:17:22;;;;;;;5.47;2.10;;;;;;;;;;5047680;28;20060;-63
2023/01/30 00:19:52;;;;;;;3.78;2.10;;;;;;;;;;5030947;28;20203;-63
2023/01/30 00:22:22;;;;;;;4.28;2.05;;;;;;;;;;5020032;28;20130;-63
2023/01/30 00:24:52;;;;;;;4.35;1.70;;;;;;;;;;4994458;28;20128;-63
2023/01/30 00:27:22;;;;;;;3.95;2.17;;;;;;;;;;5011437;28;20050;-63
2023/01/30 00:29:52;;;;;;;4.30;1.50;;;;;;;;;;5010868;28;20057;-63
2023/01/30 00:32:31;;;;;;;3.17;1.67;;;;;;;;;;4994676;28;20057;-63
2023/01/30 00:35:01;;;;;;;3.30;1.58;;;;;;;;;;5009611;28;20053;-63
2023/01/30 00:37:31;;;;;;;3.63;1.73;;;;;;;;;;4975496;28;20518;-63
2023/01/30 00:40:01;;;;;;;5.28;1.60;;;;;;;;;;4991488;28;20573;-63
2023/01/30 00:48:08;;;;;;;6.57;1.63;;;;;;;;;;4971539;28;20055;-63
2023/01/30 00:50:41;;;;;;;3.47;1.73;;;;;;;;;;4971929;28;20070;-63
2023/01/30 00:53:15;;;;;;;4.68;1.85;;;;;;;;;;4971674;28;20062;-64
2023/01/30 00:55:45;;;;;;;4.50;1.60;;;;;;;;;;5003749;28;20061;-63
2023/01/30 00:58:15;;;;;;;4.43;1.63;;;;;;;;;;5010742;28;20061;-63
2023/01/30 01:00:46;;;;;;;3.03;1.50;;;;;;;;;;5010784;28;20069;-63
2023/01/30 01:03:16;;;;;;;7.32;1.65;;;;;;;;;;4952150;29;20047;-63
2023/01/30 01:05:47;;;;;;;4.00;1.95;;;;;;;;;;4920443;28;20047;-63
2023/01/30 01:08:19;;;;;;;4.70;2.00;;;;;;;;;;4968165;28;20062;-63
2023/01/30 01:10:49;;;;;;;4.13;2.90;;;;;;;;;;4952552;28;20062;-64
2023/01/30 01:13:19;;;;;;;6.78;2.63;;;;;;;;;;4932676;29;20059;-63
2023/01/30 01:15:50;;;;;;;9.00;2.45;;;;;;;;;;4916714;29;20541;-63
2023/01/30 01:18:20;;;;;;;4.65;2.65;;;;;;;;;;4932906;29;20070;-63
2023/01/30 01:20:50;;;;;;;8.80;6.30;;;;;;;;;;4951892;28;20058;-63
2023/01/30 01:23:20;;;;;;;12.43;7.03;;;;;;;;;;4952138;28;20055;-63
2023/01/30 01:25:50;;;;;;;11.32;5.50;;;;;;;;;;4942312;28;20056;-63
2023/01/30 01:28:21;;;;;;;6.85;4.00;;;;;;;;;;4951851;28;20544;-63
2023/01/30 01:30:51;;;;;;;10.68;4.97;;;;;;;;;;4970652;28;20050;-63
2023/01/30 01:33:21;;;;;;;7.57;5.03;;;;;;;;;;4938782;28;20062;-63
2023/01/30 01:35:58;;;;;;;6.45;4.53;;;;;;;;;;4938938;28;20396;-64
2023/01/30 01:38:28;;;;;;;5.47;3.80;;;;;;;;;;4970836;28;20055;-64
2023/01/30 01:41:01;;;;;;;5.80;3.75;;;;;;;;;;4947693;28;20051;-63
2023/01/30 01:43:34;;;;;;;7.85;3.38;;;;;;;;;;4975604;28;20057;-63
2023/01/30 01:46:17;;;;;;;7.00;3.03;;;;;;;;;;4993857;28;20061;-63
2023/01/30 01:48:54;;;;;;;14.07;2.53;;;;;;;;;;5009545;28;20042;-63
2023/01/30 01:51:36;;;;;;;9.73;2.72;;;;;;;;;;5036583;28;20056;-63
2023/01/30 01:54:15;;;;;;;5.82;2.67;;;;;;;;;;5031754;28;20064;-63
2023/01/30 01:56:48;;;;;;;8.23;3.25;;;;;;;;;;5049430;28;20065;-63
2023/01/30 01:59:29;;;;;;;4.95;2.72;;;;;;;;;;4992761;28;20049;-64
2023/01/30 02:02:07;;;;;;;6.70;2.80;;;;;;;;;;4973689;28;20065;-64
2023/01/30 02:07:35;;;;;;;7.22;2.55;;;;;;;;;;4973933;28;20059;-63
2023/01/30 02:10:08;;;;;;;5.10;3.20;;;;;;;;;;5009266;28;20049;-64
2023/01/30 02:12:40;;;;;;;9.80;3.65;;;;;;;;;;4989591;28;20058;-64
2023/01/30 02:15:11;;;;;;;4.85;2.95;;;;;;;;;;4989550;28;20058;-63
2023/01/30 02:17:41;;;;;;;4.68;3.13;;;;;;;;;;4969723;28;20126;-63
2023/01/30 02:20:13;;;;;;;6.45;3.50;;;;;;;;;;4970331;28;20066;-64
2023/01/30 02:22:46;;;;;;;4.75;3.20;;;;;;;;;;4970064;28;20058;-64
2023/01/30 02:25:34;;;;;;;9.57;3.20;;;;;;;;;;4951221;28;20056;-64
2023/01/30 02:28:20;;;;;;;5.47;3.35;;;;;;;;;;4931493;29;20048;-64
2023/01/30 02:31:05;;;;;;;7.65;3.58;;;;;;;;;;4912310;29;20059;-64
2023/01/30 02:33:54;;;;;;;6.55;3.63;;;;;;;;;;4912229;29;20059;-64
2023/01/30 02:36:43;;;;;;;11.70;3.97;;;;;;;;;;4893278;29;20056;-63
2023/01/30 02:39:58;;;;;;;5.57;3.42;;;;;;;;;;4893429;29;20061;-63
2023/01/30 02:42:39;;;;;;;6.05;3.67;;;;;;;;;;4856001;29;20057;-63
2023/01/30 02:45:20;;;;;;;8.00;3.42;;;;;;;;;;4871537;29;20064;-63
2023/01/30 02:48:00;;;;;;;6.30;3.38;;;;;;;;;;4816002;29;20069;-64
2023/01/30 02:51:02;;;;;;;8.80;3.45;;;;;;;;;;4840146;29;20115;-64
2023/01/30 02:53:33;;;;;;;7.40;3.28;;;;;;;;;;4874491;29;20049;-64
2023/01/30 02:56:04;;;;;;;;;;;;;;;;;;4874635;29;20068;-64
2023/01/30 02:58:42;;;;;;;11.18;3.10;;;;;;;;;;4855807;29;20426;-64
2023/01/30 03:01:24;;;;;;;6.13;3.20;;;;;;;;;;4855157;29;20415;-64
2023/01/30 03:04:26;;;;;;;5.07;2.85;;;;;;;;;;4872527;29;20048;-64
2023/01/30 03:07:11;;;;;;;7.22;3.72;;;;;;;;;;4861634;29;20076;-63
2023/01/30 03:10:06;;;;;;;6.22;3.60;;;;;;;;;;4857051;29;20065;-63
2023/01/30 03:13:20;;;;;;;9.60;3.33;;;;;;;;;;4892716;29;20056;-63
2023/01/30 03:15:56;;;;;;;6.10;3.58;;;;;;;;;;4836892;29;20065;-63
2023/01/30 03:18:29;;;;;;;7.75;3.28;;;;;;;;;;4797191;29;20146;-63
2023/01/30 03:21:08;;;;;;;7.93;3.30;;;;;;;;;;4789220;29;20046;-63
2023/01/30 03:23:39;;;;;;;7.50;3.55;;;;;;;;;;4834155;29;20507;-63
2023/01/30 03:26:25;;;;;;;8.82;3.22;;;;;;;;;;4837350;29;20050;-63
2023/01/30 03:28:56;;;;;;;7.70;3.63;;;;;;;;;;4837221;29;20849;-63
2023/01/30 03:31:26;;;;;;;8.20;3.53;;;;;;;;;;4841470;29;20058;-63
2023/01/30 03:33:56;;;;;;;6.97;3.47;;;;;;;;;;4827983;29;20058;-63
2023/01/30 03:36:26;;;;;;;8.20;3.95;;;;;;;;;;4842912;29;20058;-63
2023/01/30 03:38:57;;;;;;;7.22;3.03;;;;;;;;;;4812441;29;20062;-63
2023/01/30 03:41:27;;;;;;;8.85;3.60;;;;;;;;;;4835100;29;20061;-64
2023/01/30 03:43:57;;;;;;;8.77;3.25;;;;;;;;;;4892436;29;20056;-63
2023/01/30 03:46:27;;;;;;;10.75;3.30;;;;;;;;;;4892837;29;20071;-65
2023/01/30 03:48:58;;;;;;;9.27;4.22;;;;;;;;;;4911300;29;20512;-63
2023/01/30 03:51:28;;;;;;;10.45;5.47;;;;;;;;;;4958263;28;20054;-63
2023/01/30 03:53:58;;;;;;;10.10;4.88;;;;;;;;;;4914169;29;20646;-64
2023/01/30 03:56:30;;;;;;;12.77;5.28;;;;;;;;;;4895520;29;20059;-63
2023/01/30 03:59:01;;;;;;;9.63;5.07;;;;;;;;;;4880229;29;20059;-63
2023/01/30 04:01:38;;;;;;;10.10;5.25;;;;;;;;;;4911123;29;20104;-64
2023/01/30 04:04:08;;;;;;;12.60;6.07;;;;;;;;;;4896104;29;20068;-64
2023/01/30 04:06:39;;;;;;;12.85;5.90;;;;;;;;;;4882328;29;20056;-63
2023/01/30 04:09:09;;;;;;;13.52;6.40;;;;;;;;;;4854872;29;20050;-63
2023/01/30 04:11:47;;;;;;;13.48;5.78;;;;;;;;;;4873486;29;20090;-63
2023/01/30 04:14:18;;;;;;;17.27;6.20;;;;;;;;;;4852228;29;20050;-64
2023/01/30 04:17:07;;;;;;;13.95;5.90;;;;;;;;;;4849412;29;20427;-63
2023/01/30 04:19:56;;;;;;;13.35;5.93;;;;;;;;;;4841060;29;20526;-63
2023/01/30 04:22:32;;;;;;;16.15;6.70;;;;;;;;;;4876803;29;20407;-63
2023/01/30 04:25:03;;;;;;;13.32;6.22;;;;;;;;;;4907536;29;20175;-63
2023/01/30 04:27:33;;;;;;;13.13;4.95;;;;;;;;;;4884954;29;20445;-63
2023/01/30 04:30:19;;;;;;;11.95;5.90;;;;;;;;;;4896308;29;20184;-63
2023/01/30 04:32:53;;;;;;;14.25;6.00;;;;;;;;;;4895651;29;20703;-63
2023/01/30 04:35:23;;;;;;;14.88;6.70;;;;;;;;;;4879853;29;20056;-63
2023/01/30 04:37:54;;;;;;;19.23;6.05;;;;;;;;;;4885639;29;20563;-63
2023/01/30 04:40:24;;;;;;;15.70;5.95;;;;;;;;;;4913264;29;20076;-63
2023/01/30 04:42:55;;;;;;;14.35;5.95;;;;;;;;;;4905198;29;20063;-63
2023/01/30 04:45:47;;;;;;;13.95;5.80;;;;;;;;;;4933073;29;20044;-63
2023/01/30 04:48:19;;;;;;;11.85;5.65;;;;;;;;;;4910687;29;20059;-62
2023/01/30 04:50:52;;;;;;;13.80;5.55;;;;;;;;;;4876941;29;20056;-63
2023/01/30 04:53:24;;;;;;;14.15;5.63;;;;;;;;;;4917368;29;20531;-64
2023/01/30 04:55:53;;;;;;;10.55;5.30;;;;;;;;;;4913693;29;20437;-64
2023/01/30 04:58:25;;;;;;;13.07;5.78;;;;;;;;;;4876597;29;20076;-63
2023/01/30 05:00:55;;;;;;;15.57;5.88;;;;;;;;;;4828866;29;20050;-63
2023/01/30 05:03:24;;;;;;;14.60;5.88;;;;;;;;;;4810982;29;20055;-63
2023/01/30 05:05:54;;;;;;;12.80;5.90;;;;;;;;;;4865261;29;20058;-63
2023/01/30 05:08:24;;;;;;;19.33;6.40;;;;;;;;;;4821176;29;20524;-63
2023/01/30 05:10:57;;;;;;;16.13;6.43;;;;;;;;;;4791111;29;20067;-63
2023/01/30 05:13:27;;;;;;;18.08;6.43;;;;;;;;;;4821024;29;20066;-63
2023/01/30 05:15:57;;;;;;;14.88;5.32;;;;;;;;;;4812000;29;20054;-63
2023/01/30 05:18:27;;;;;;;10.93;5.47;;;;;;;;;;4872991;29;20062;-63
2023/01/30 05:21:26;;;;;;;13.43;5.57;;;;;;;;;;4844883;29;20065;-65
2023/01/30 05:23:57;;;;;;;12.98;5.72;;;;;;;;;;4880686;29;20060;-63
2023/01/30 05:26:27;;;;;;;13.63;6.28;;;;;;;;;;4907913;29;20071;-63
2023/01/30 05:28:57;;;;;;;14.13;6.15;;;;;;;;;;4939368;28;20067;-64
2023/01/30 05:31:27;;;;;;;14.35;6.07;;;;;;;;;;4951814;29;20051;-63
2023/01/30 05:33:57;;;;;;;15.98;6.05;;;;;;;;;;4990819;28;20064;-63
2023/01/30 05:36:27;;;;;;;11.95;5.38;;;;;;;;;;4966874;28;20051;-63
2023/01/30 05:38:57;;;;;;;13.98;5.88;;;;;;;;;;4964536;28;20066;-63
2023/01/30 05:41:28;;;;;;;13.75;6.00;;;;;;;;;;4983941;28;20069;-63
2023/01/30 05:43:58;;;;;;;13.65;6.35;;;;;;;;;;5016560;28;20057;-63
2023/01/30 05:46:27;;;;;;;18.30;6.75;;;;;;;;;;5029618;28;20072;-63
2023/01/30 05:48:58;;;;;;;16.05;7.05;;;;;;;;;;5029616;28;20049;-63
2023/01/30 05:51:27;;;;;;;17.10;7.35;;;;;;;;;;5029526;28;20057;-63
2023/01/30 05:53:57;;;;;;;16.52;7.68;;;;;;;;;;5029855;28;20050;-64
2023/01/30 05:56:32;;;;;;;18.88;7.72;;;;;;;;;;5029647;28;20064;-63
2023/01/30 05:59:02;;;;;;;17.23;8.57;;;;;;;;;;5045939;28;20053;-64
2023/01/30 06:01:32;;;;;;;21.45;8.63;;;;;;;;;;5029206;28;20449;-63
2023/01/30 06:04:02;;;;;;;18.80;8.38;;;;;;;;;;4996703;28;20064;-63
2023/01/30 06:06:32;;;;;;;20.33;7.88;;;;;;;;;;5029164;28;20042;-64
2023/01/30 06:09:03;;;;;;;16.13;7.75;;;;;;;;;;5029666;28;20045;-63
2023/01/30 06:11:33;;;;;;;22.70;7.63;;;;;;;;;;4980500;28;20156;-64
2023/01/30 06:14:03;;;;;;;21.95;8.15;;;;;;;;;;5015785;28;20059;-63
2023/01/30 06:16:33;;;;;;;20.85;8.02;;;;;;;;;;5069287;28;20055;-63
2023/01/30 06:19:03;;;;;;;23.45;8.75;;;;;;;;;;5036227;28;20067;-65
2023/01/30 06:21:33;;;;;;;18.17;7.88;;;;;;;;;;5052628;28;20053;-63
2023/01/30 06:24:04;;;;;;;20.88;7.75;;;;;;;;;;5071473;28;20051;-64
2023/01/30 06:26:34;;;;;;;18.45;7.07;;;;;;;;;;5048129;28;20052;-63
2023/01/30 06:29:04;;;;;;;18.90;6.93;;;;;;;;;;5049044;28;20165;-63
2023/01/30 06:31:34;;;;;;;15.63;6.60;;;;;;;;;;5048655;28;20061;-64
2023/01/30 06:34:05;;;;;;;15.13;7.45;;;;;;;;;;5048807;28;20063;-63
2023/01/30 06:36:35;;;;;;;14.80;6.65;;;;;;;;;;5049104;28;20517;-64
2023/01/30 06:39:05;;;;;;;15.52;6.25;;;;;;;;;;5048759;28;20068;-63
2023/01/30 06:41:35;;;;;;;14.00;5.90;;;;;;;;;;5047845;28;20112;-63
2023/01/30 06:44:05;;;;;;;11.45;5.53;;;;;;;;;;5048651;28;20064;-64
2023/01/30 06:46:34;;;;;;;10.35;5.30;;;;;;;;;;5048587;28;20441;-63
2023/01/30 06:49:05;;;;;;;12.52;5.30;;;;;;;;;;5048441;28;20490;-64
2023/01/30 06:51:35;;;;;;;10.48;5.25;;;;;;;;;;5048501;28;20068;-63
2023/01/30 06:54:05;;;;;;;14.38;5.13;;;;;;;;;;5048428;28;20114;-63
2023/01/30 06:56:35;;;;;;;14.27;6.15;;;;;;;;;;4944797;28;20046;-64
2023/01/30 06:59:05;;;;;;;11.68;5.15;;;;;;;;;;5008234;28;20045;-65
2023/01/30 07:01:36;;;;;;;9.90;5.03;;;;;;;;;;4976119;28;20062;-64
2023/01/30 07:04:06;;;;;;;11.45;4.78;;;;;;;;;;4960021;28;20418;-64
2023/01/30 07:06:36;;;;;;;14.27;4.97;;;;;;;;;;5008557;28;20050;-64
2023/01/30 07:09:08;;;;;;;11.23;4.93;;;;;;;;;;4984672;28;20411;-64
2023/01/30 07:11:38;;;;;;;12.48;4.57;;;;;;;;;;4969384;28;20050;-64
2023/01/30 07:14:09;;;;;;;10.18;5.25;;;;;;;;;;4969102;28;20062;-64
2023/01/30 07:16:39;;;;;;;10.10;5.10;;;;;;;;;;4969608;28;20055;-65
2023/01/30 07:19:10;;;;;;;13.40;5.05;;;;;;;;;;4969441;28;20423;-63
2023/01/30 07:21:40;;;;;;;12.63;5.68;;;;;;;;;;4985282;28;20055;-64
2023/01/30 07:24:10;;;;;;;14.95;6.20;;;;;;;;;;4987898;28;20050;-64
2023/01/30 07:26:40;;;;;;;8.27;4.85;;;;;;;;;;5008460;28;20414;-63
2023/01/30 07:29:10;;;;;;;11.52;4.65;;;;;;;;;;5008002;28;20057;-64
2023/01/30 07:31:40;;;;;;;10.63;5.03;;;;;;;;;;5008453;28;20053;-64
2023/01/30 07:34:10;;;;;;;13.73;5.18;;;;;;;;;;5026807;28;20061;-64
2023/01/30 07:36:39;;;;;;;10.48;4.50;;;;;;;;;;5048049;28;20041;-64
2023/01/30 07:39:09;;;;;;;12.50;5.32;;;;;;;;;;5015409;28;20065;-64
2023/01/30 07:41:40;;;;;;;12.05;5.03;;;;;;;;;;5014649;28;20547;-64
2023/01/30 07:44:12;;;;;;;13.27;5.68;;;;;;;;;;5008098;28;20056;-64
2023/01/30 07:46:42;;;;;;;11.85;5.00;;;;;;;;;;4985675;28;20060;-63
2023/01/30 07:49:13;;;;;;;8.48;4.55;;;;;;;;;;5027792;28;20061;-64
2023/01/30 07:51:43;;;;;;;9.32;4.75;;;;;;;;;;5029339;28;20060;-64
2023/01/30 07:54:13;;;;;;;9.80;4.07;;;;;;;;;;5015540;28;20053;-64
2023/01/30 07:56:43;;;;;;;8.57;4.30;;;;;;;;;;5032122;28;20065;-64
2023/01/30 07:59:13;;;;;;;8.77;4.28;;;;;;;;;;5032537;28;20968;-64
2023/01/30 08:01:43;;;;;;;6.20;3.38;;;;;;;;;;5051751;28;20053;-64
2023/01/30 08:04:13;;;;;;;8.52;4.15;;;;;;;;;;5051548;28;20057;-64
2023/01/30 08:06:44;;;;;;;12.90;4.10;;;;;;;;;;5051567;28;20131;-64
2023/01/30 08:09:14;;;;;;;12.55;4.05;;;;;;;;;;5002322;28;20060;-64
2023/01/30 08:11:44;;;;;;;13.27;4.72;;;;;;;;;;5051556;28;20048;-64
2023/01/30 08:14:14;;;;;;;8.65;4.07;;;;;;;;;;5051189;28;20540;-64
2023/01/30 08:16:44;;;;;;;12.00;3.85;;;;;;;;;;5051576;28;20575;-64
2023/01/30 08:19:14;;;;;;;12.35;4.50;;;;;;;;;;5001914;28;20528;-65
2023/01/30 08:21:45;;;;;;;14.98;4.68;;;;;;;;;;5018428;28;20424;-66
2023/01/30 08:24:15;;;;;;;10.23;3.42;;;;;;;;;;5071509;28;20416;-64
2023/01/30 08:26:48;;;;;;;8.10;3.97;;;;;;;;;;5037964;28;20052;-64
2023/01/30 08:29:18;;;;;;;10.65;3.63;;;;;;;;;;5071244;28;20049;-64
2023/01/30 08:31:48;;;;;;;7.78;3.55;;;;;;;;;;5073797;28;20040;-64
2023/01/30 08:34:18;;;;;;;6.28;3.90;;;;;;;;;;5073680;28;20373;-64
2023/01/30 08:36:48;;;;;;;8.82;3.75;;;;;;;;;;5073369;28;20044;-64
2023/01/30 08:39:19;;;;;;;9.23;3.72;;;;;;;;;;5054746;28;20056;-64
2023/01/30 08:41:49;;;;;;;12.05;2.97;;;;;;;;;;5070821;28;20533;-63
2023/01/30 08:44:19;;;;;;;5.55;3.20;;;;;;;;;;5022343;28;20527;-63
2023/01/30 08:46:49;;;;;;;5.90;2.90;;;;;;;;;;5073408;28;20040;-63
2023/01/30 08:49:19;;;;;;;4.57;2.55;;;;;;;;;;5073441;28;20045;-63
2023/01/30 08:51:49;;;;;;;4.75;2.28;;;;;;;;;;5073016;28;20036;-63
2023/01/30 08:54:19;;;;;;;4.25;2.47;;;;;;;;;;5072944;28;20045;-64
2023/01/30 08:56:49;;;;;;;4.43;2.60;;;;;;;;;;5070337;28;20049;-63
2023/01/30 08:59:19;;;;;;;4.90;2.55;;;;;;;;;;5070554;28;20053;-64
2023/01/30 09:01:49;;;;;;;6.05;2.92;;;;;;;;;;5053943;28;20413;-64
2023/01/30 09:04:19;;;;;;;4.93;2.67;;;;;;;;;;5053382;28;20520;-64
2023/01/30 09:06:49;;;;;;;4.25;2.40;;;;;;;;;;5049850;28;20049;-63
2023/01/30 09:09:19;;;;;;;6.80;2.90;;;;;;;;;;5050244;28;20403;-64
2023/01/30 09:11:49;;;;;;;6.10;2.75;;;;;;;;;;5033370;28;20053;-64
2023/01/30 09:14:19;;;;;;;6.00;2.60;;;;;;;;;;5016654;28;20049;-63
2023/01/30 09:16:55;;;;;;;4.88;2.38;;;;;;;;;;5033279;28;20061;-64
2023/01/30 09:19:27;;;;;;;5.68;2.50;;;;;;;;;;5050159;28;20057;-63
2023/01/30 09:22:06;;;;;;;4.78;2.50;;;;;;;;;;5049880;28;20497;-64
2023/01/30 09:24:36;;;;;;;4.38;2.50;;;;;;;;;;5016966;28;20064;-63
2023/01/30 09:27:06;;;;;;;4.32;2.55;;;;;;;;;;5016767;28;20053;-64
2023/01/30 09:29:37;;;;;;;5.03;2.47;;;;;;;;;;5033749;28;20049;-64
2023/01/30 09:32:07;;;;;;;4.88;2.50;;;;;;;;;;5049932;28;20398;-63
2023/01/30 09:34:38;;;;;;;5.20;2.58;;;;;;;;;;5049981;28;20414;-64
2023/01/30 09:37:08;;;;;;;4.22;2.40;;;;;;;;;;5049754;28;20083;-64
2023/01/30 09:39:38;;;;;;;4.20;2.20;;;;;;;;;;5049782;28;20060;-64
2023/01/30 09:42:26;;;;;;;4.70;2.10;;;;;;;;;;5049793;28;20489;-64
2023/01/30 09:45:27;;;;;;;7.00;2.33;;;;;;;;;;5030415;28;20761;-64
2023/01/30 09:48:02;;;;;;;3.78;2.13;;;;;;;;;;5072206;28;20044;-64
2023/01/30 09:50:43;;;;;;;5.97;2.20;;;;;;;;;;5053068;28;20071;-64
2023/01/30 09:53:31;;;;;;;5.53;2.33;;;;;;;;;;5069756;28;20055;-64
2023/01/30 09:56:01;;;;;;;4.13;2.20;;;;;;;;;;5072349;28;20392;-64
2023/01/30 09:58:45;;;;;;;6.20;2.20;;;;;;;;;;5069613;28;20059;-64
2023/01/30 10:01:26;;;;;;;4.03;2.33;;;;;;;;;;5071946;28;20076;-63
2023/01/30 10:04:22;;;;;;;5.82;2.63;;;;;;;;;;5035942;28;20507;-63
2023/01/30 10:07:24;;;;;;;4.65;2.47;;;;;;;;;;5009301;28;20069;-63
2023/01/30 10:10:13;;;;;;;4.40;2.20;;;;;;;;;;5009602;28;20421;-64
2023/01/30 10:12:57;;;;;;;4.03;2.40;;;;;;;;;;4976893;28;20062;-64
2023/01/30 10:15:55;;;;;;;3.50;2.00;;;;;;;;;;5008223;28;20481;-64
2023/01/30 10:18:54;;;;;;;6.45;2.03;;;;;;;;;;4976663;28;20050;-64
2023/01/30 10:21:46;;;;;;;5.03;2.03;;;;;;;;;;4976686;28;20076;-64
2023/01/30 10:24:44;;;;;;;3.75;1.92;;;;;;;;;;4992314;28;20049;-64
2023/01/30 10:27:16;;;;;;;4.40;1.85;;;;;;;;;;4992353;28;20061;-64
2023/01/30 10:29:55;;;;;;;4.90;1.63;;;;;;;;;;5009332;28;20091;-64
2023/01/30 10:33:11;;;;;;;5.05;1.92;;;;;;;;;;4976906;28;20073;-65
2023/01/30 10:35:42;;;;;;;4.15;1.90;;;;;;;;;;4950785;29;20051;-64
2023/01/30 10:38:26;;;;;;;3.65;2.10;;;;;;;;;;4966500;28;20527;-65
2023/01/30 10:41:20;;;;;;;4.65;2.15;;;;;;;;;;4950284;28;20051;-64
2023/01/30 10:44:13;;;;;;;3.47;2.00;;;;;;;;;;4962892;28;20065;-65
2023/01/30 10:47:05;;;;;;;4.05;2.50;;;;;;;;;;4950392;28;20051;-64
2023/01/30 10:49:51;;;;;;;3.97;2.35;;;;;;;;;;4934913;29;20424;-64
2023/01/30 10:52:36;;;;;;;4.05;2.20;;;;;;;;;;4934453;29;20070;-64
2023/01/30 10:55:53;;;;;;;3.10;2.13;;;;;;;;;;4950499;28;20056;-64
2023/01/30 10:58:38;;;;;;;2.65;1.70;;;;;;;;;;4893451;29;20064;-64
2023/01/30 11:01:25;;;;;;;3.22;1.98;;;;;;;;;;4893318;29;20048;-64
2023/01/30 11:04:17;;;;;;;4.13;1.77;;;;;;;;;;4892590;29;20044;-64
2023/01/30 11:06:48;;;;;;;5.50;2.17;;;;;;;;;;4893641;29;20053;-64
2023/01/30 11:09:18;;;;;;;2.85;1.67;;;;;;;;;;4889011;29;20412;-64
2023/01/30 11:11:54;;;;;;;2.72;1.50;;;;;;;;;;4950426;29;20063;-64
2023/01/30 11:14:25;;;;;;;4.72;2.50;;;;;;;;;;4949973;29;20574;-64
2023/01/30 11:16:58;;;;;;;4.03;2.40;;;;;;;;;;4918260;29;20054;-64
2023/01/30 11:19:32;;;;;;;4.25;2.40;;;;;;;;;;4902394;29;20059;-64
2023/01/30 11:22:05;;;;;;;8.98;3.10;;;;;;;;;;4950070;29;20070;-65
2023/01/30 11:24:40;;;;;;;6.45;2.55;;;;;;;;;;4905119;28;20055;-64
2023/01/30 11:27:16;;;;;;;4.30;2.70;;;;;;;;;;4969244;28;20047;-64
2023/01/30 11:29:49;;;;;;;3.47;1.73;;;;;;;;;;4921554;28;20059;-64
2023/01/30 11:32:26;;;;;;;5.55;1.52;;;;;;;;;;4969449;28;20090;-64
2023/01/30 11:35:06;;;;;;;4.32;2.83;;;;;;;;;;4979036;28;20056;-64
2023/01/30 11:37:39;;;;;;;3.13;1.73;;;;;;;;;;5011392;28;20049;-64
2023/01/30 11:40:20;;;;;;;3.58;1.70;;;;;;;;;;5028087;28;20077;-64
2023/01/30 11:42:58;;;;;;;3.53;1.70;;;;;;;;;;5011728;28;20057;-64
2023/01/30 11:45:29;;;;;;;7.30;1.60;;;;;;;;;;5027906;28;20046;-64
2023/01/30 11:48:03;;;;;;;5.07;2.13;;;;;;;;;;4994774;28;20092;-64
2023/01/30 11:50:46;;;;;;;3.67;1.70;;;;;;;;;;4995298;28;20045;-64
2023/01/30 11:53:32;;;;;;;3.85;1.80;;;;;;;;;;4995918;28;20060;-64
2023/01/30 11:56:29;;;;;;;3.05;1.70;;;;;;;;;;5027583;28;20052;-64
2023/01/30 11:59:26;;;;;;;2.80;1.73;;;;;;;;;;5027724;28;20089;-64
2023/01/30 12:02:05;;;;;;;3.17;1.90;;;;;;;;;;4979563;28;20057;-64
2023/01/30 12:04:35;;;;;;;4.22;1.80;;;;;;;;;;5027603;28;20426;-64
2023/01/30 12:07:28;;;;;;;3.53;1.50;;;;;;;;;;4987563;28;20192;-64
2023/01/30 12:09:59;;;;;;;3.00;1.67;;;;;;;;;;5007827;28;20514;-64
2023/01/30 12:12:31;;;;;;;2.90;1.30;;;;;;;;;;5000882;28;20061;-64
2023/01/30 12:15:20;;;;;;;7.25;1.75;;;;;;;;;;4994493;28;20057;-64
2023/01/30 12:18:14;;;;;;;4.15;2.03;;;;;;;;;;5027695;28;20053;-64
2023/01/30 12:21:14;;;;;;;2.90;1.60;;;;;;;;;;5027333;28;20057;-64
2023/01/30 12:24:12;;;;;;;2.75;1.80;;;;;;;;;;5011349;28;20057;-64
2023/01/30 12:26:52;;;;;;;2.78;1.70;;;;;;;;;;5013394;28;20057;-65
2023/01/30 12:29:51;;;;;;;4.32;1.83;;;;;;;;;;5027229;28;20461;-65
2023/01/30 12:32:26;;;;;;;3.17;1.50;;;;;;;;;;5025674;28;20069;-64
2023/01/30 12:34:57;;;;;;;2.38;1.63;;;;;;;;;;5034588;28;20099;-65
2023/01/30 12:37:35;;;;;;;2.83;1.52;;;;;;;;;;5067293;28;20057;-64
2023/01/30 12:40:23;;;;;;;3.70;2.40;;;;;;;;;;5054232;28;20040;-65
2023/01/30 12:43:09;;;;;;;4.70;1.65;;;;;;;;;;5037484;28;20049;-65
2023/01/30 12:45:48;;;;;;;2.50;1.52;;;;;;;;;;5053300;28;20413;-64
2023/01/30 12:48:36;;;;;;;5.40;2.45;;;;;;;;;;5001529;28;20053;-64
2023/01/30 12:51:36;;;;;;;2.85;1.67;;;;;;;;;;5051062;28;20049;-64
2023/01/30 12:54:30;;;;;;;4.20;2.35;;;;;;;;;;5050539;28;20072;-64
2023/01/30 12:57:25;;;;;;;3.20;1.95;;;;;;;;;;5050591;28;20044;-64
2023/01/30 13:00:19;;;;;;;3.33;1.88;;;;;;;;;;5034032;28;20057;-64
2023/01/30 13:03:26;;;;;;;3.53;1.75;;;;;;;;;;5033658;28;20049;-65
2023/01/30 13:06:18;;;;;;;4.93;2.50;;;;;;;;;;5051479;28;20056;-65
2023/01/30 13:09:25;;;;;;;4.53;2.47;;;;;;;;;;5072499;28;20040;-65
2023/01/30 13:12:23;;;;;;;5.38;2.17;;;;;;;;;;5030320;28;20061;-65
2023/01/30 13:15:27;;;;;;;4.28;1.80;;;;;;;;;;5010304;28;20042;-64
2023/01/30 13:18:30;;;;;;;5.20;1.90;;;;;;;;;;5010634;28;20057;-65
2023/01/30 13:21:19;;;;;;;6.25;2.30;;;;;;;;;;5010472;28;20038;-64
2023/01/30 13:23:55;;;;;;;5.05;2.03;;;;;;;;;;5010529;28;20775;-64
2023/01/30 13:26:34;;;;;;;3.33;1.77;;;;;;;;;;5010328;28;20058;-64
2023/01/30 13:29:23;;;;;;;4.18;2.08;;;;;;;;;;4993594;28;20469;-64
2023/01/30 13:31:58;;;;;;;2.50;1.63;;;;;;;;;;5010220;28;20077;-65
2023/01/30 13:34:33;;;;;;;2.97;1.70;;;;;;;;;;5010217;28;20053;-65
2023/01/30 13:37:11;;;;;;;3.25;1.73;;;;;;;;;;5010071;28;20053;-64
2023/01/30 13:39:52;;;;;;;4.93;1.77;;;;;;;;;;5010520;28;20553;-65
2023/01/30 13:43:15;;;;;;;4.03;1.60;;;;;;;;;;5010064;28;20042;-63
2023/01/30 13:45:48;;;;;;;3.80;1.85;;;;;;;;;;4990790;28;20058;-64
2023/01/30 13:48:37;;;;;;;5.40;3.00;;;;;;;;;;4990828;28;20049;-65
2023/01/30 13:51:21;;;;;;;5.90;4.03;;;;;;;;;;5009791;28;20931;-64
2023/01/30 13:54:09;;;;;;;3.20;1.52;;;;;;;;;;4961083;28;20049;-65
2023/01/30 13:57:06;;;;;;;3.42;1.75;;;;;;;;;;4993292;28;20062;-64
2023/01/30 13:59:57;;;;;;;3.08;1.50;;;;;;;;;;4960273;28;20065;-65
2023/01/30 14:02:27;;;;;;;3.63;1.13;;;;;;;;;;4989744;28;20054;-65
2023/01/30 14:04:57;;;;;;;2.25;1.13;;;;;;;;;;4989902;28;20051;-67
2023/01/30 14:07:38;;;;;;;2.05;1.13;;;;;;;;;;4974087;28;20046;-65
2023/01/30 14:10:08;;;;;;;2.15;1.02;;;;;;;;;;4989753;28;20062;-65
2023/01/30 14:12:44;;;;;;;3.53;1.50;;;;;;;;;;4990090;28;20053;-64
2023/01/30 14:15:14;;;;;;;4.32;1.42;;;;;;;;;;4989563;28;20062;-64
2023/01/30 14:18:00;;;;;;;2.22;1.35;;;;;;;;;;4941539;28;20067;-64
2023/01/30 14:20:32;;;;;;;3.85;1.58;;;;;;;;;;4985745;28;20438;-64
2023/01/30 14:23:26;;;;;;;2.00;1.33;;;;;;;;;;4962221;28;20054;-64
2023/01/30 14:25:56;;;;;;;3.88;1.30;;;;;;;;;;4860652;29;21253;-64
2023/01/30 14:28:29;;;;;;;2.28;1.20;;;;;;;;;;4848371;29;20064;-64
2023/01/30 14:31:02;;;;;;;1.58;0.90;;;;;;;;;;4876373;29;20061;-64
2023/01/30 14:33:35;;;;;;;1.42;0.63;;;;;;;;;;4893722;29;20048;-64
2023/01/30 14:36:05;;;;;;;2.95;0.70;;;;;;;;;;4899584;29;20428;-62
2023/01/30 14:38:37;;;;;;;1.33;0.73;;;;;;;;;;4931753;29;20064;-63
2023/01/30 14:41:06;;;;;;;;;;;;;;;;;;4901519;29;20071;-63
2023/01/30 14:43:42;;;;;;;2.10;0.65;;;;;;;;;;4915422;29;19929;-64
2023/01/30 14:46:17;;;;;;;2.50;0.93;;;;;;;;;;4949607;29;20500;-64
2023/01/30 14:48:54;;;;;;;1.33;0.60;;;;;;;;;;4903126;29;20063;-64
2023/01/30 14:51:42;;;;;;;2.22;0.63;;;;;;;;;;4934243;29;20425;-64
2023/01/30 14:54:12;;;;;;;0.90;0.77;;;;;;;;;;4947904;29;20047;-65
2023/01/30 14:56:49;;;;;;;1.98;0.75;;;;;;;;;;4927558;29;20059;-64
2023/01/30 14:59:25;;;;;;;2.90;0.80;;;;;;;;;;4931113;29;20071;-65
2023/01/30 15:02:13;;;;;;;1.70;0.60;;;;;;;;;;4914528;29;20878;-65
2023/01/30 15:05:02;;;;;;;1.23;0.70;;;;;;;;;;4995091;28;20425;-64
2023/01/30 15:07:57;;;;;;;1.65;0.73;;;;;;;;;;5019847;28;20060;-65
2023/01/30 15:10:48;;;;;;;2.42;0.80;;;;;;;;;;5028118;28;20041;-65
2023/01/30 15:13:24;;;;;;;2.38;0.60;;;;;;;;;;5011512;28;20057;-65
2023/01/30 15:16:05;;;;;;;1.20;0.63;;;;;;;;;;5051160;28;20056;-65
2023/01/30 15:18:54;;;;;;;1.00;0.80;;;;;;;;;;5035631;28;20052;-65
2023/01/30 15:21:36;;;;;;;5.80;0.60;;;;;;;;;;5050417;28;20049;-65
2023/01/30 15:24:21;;;;;;;0.90;0.60;;;;;;;;;;5047385;28;20547;-65
2023/01/30 15:26:59;;;;;;;1.88;0.63;;;;;;;;;;5014335;28;20505;-65
2023/01/30 15:29:50;;;;;;;3.95;0.75;;;;;;;;;;5047899;28;20055;-64
2023/01/30 15:32:28;;;;;;;3.00;0.75;;;;;;;;;;4998147;28;20509;-66
2023/01/30 15:35:15;;;;;;;1.67;0.70;;;;;;;;;;5008800;28;20057;-64
2023/01/30 15:37:45;;;;;;;1.65;0.60;;;;;;;;;;5032567;28;20056;-65
2023/01/30 15:40:18;;;;;;;1.85;0.50;;;;;;;;;;5042408;28;20049;-64
2023/01/30 15:43:48;;;;;;;2.28;1.02;;;;;;;;;;5060701;28;20425;-63
2023/01/30 15:46:48;;;;;;;1.20;0.70;;;;;;;;;;4998351;28;20562;-64
2023/01/30 15:49:48;;;;;;;1.13;0.80;;;;;;;;;;5030244;28;20045;-64